sensor_id;sensor_type;location;lat;lon;timestamp;P1;durP1;ratioP1;P2;durP2;ratioP2
44564;SDS011;30275;51.822;-0.326;2022-09-29T00:01:22;1.42;;;1.05;;
44564;SDS011;30275;51.822;-0.326;2022-09-29T00:03:48;1.23;;;1.00;;
44564;SDS011;30275;51.822;-0.326;2022-09-29T00:06:14;2.13;;;1.15;;
44564;SDS011;30275;51.822;-0.326;2022-09-29T00:08:41;5.38;;;1.60;;
44564;SDS011;30275;51.822;-0.326;2022-09-29T00:11:12;3.38;;;1.40;;
44564;SDS011;30275;51.822;-0.326;2022-09-29T00:13:39;2.23;;;1.23;;
44564;SDS011;30275;51.822;-0.326;2022-09-29T00:16:05;5.85;;;1.35;;
44564;SDS011;30275;51.822;-0.326;2022-09-29T00:18:31;1.27;;;0.90;;
44564;SDS011;30275;51.822;-0.326;2022-09-29T00:20:59;2.92;;;1.15;;
44564;SDS011;30275;51.822;-0.326;2022-09-29T00:26:00;1.77;;;1.30;;
44564;SDS011;30275;51.822;-0.326;2022-09-29T00:28:26;1.25;;;1.15;;
44564;SDS011;30275;51.822;-0.326;2022-09-29T00:30:52;1.25;;;1.10;;
44564;SDS011;30275;51.822;-0.326;2022-09-29T00:33:18;2.92;;;1.42;;
44564;SDS011;30275;51.822;-0.326;2022-09-29T00:35:43;2.55;;;1.35;;
44564;SDS011;30275;51.822;-0.326;2022-09-29T00:38:09;1.65;;;0.88;;
44564;SDS011;30275;51.822;-0.326;2022-09-29T00:40:34;3.30;;;1.40;;
44564;SDS011;30275;51.822;-0.326;2022-09-29T00:43:00;1.30;;;1.02;;
44564;SDS011;30275;51.822;-0.326;2022-09-29T00:45:26;1.98;;;1.08;;
44564;SDS011;30275;51.822;-0.326;2022-09-29T00:47:53;6.93;;;1.38;;
44564;SDS011;30275;51.822;-0.326;2022-09-29T00:50:30;1.45;;;1.20;;
44564;SDS011;30275;51.822;-0.326;2022-09-29T00:53:06;2.47;;;1.55;;
44564;SDS011;30275;51.822;-0.326;2022-09-29T00:55:43;2.13;;;1.30;;
44564;SDS011;30275;51.822;-0.326;2022-09-29T00:58:25;1.65;;;0.90;;
44564;SDS011;30275;51.822;-0.326;2022-09-29T01:00:54;1.77;;;1.27;;
44564;SDS011;30275;51.822;-0.326;2022-09-29T01:03:20;2.67;;;1.13;;
44564;SDS011;30275;51.822;-0.326;2022-09-29T01:05:53;1.73;;;1.20;;
44564;SDS011;30275;51.822;-0.326;2022-09-29T01:10:59;1.20;;;1.00;;
44564;SDS011;30275;51.822;-0.326;2022-09-29T01:13:26;1.90;;;1.10;;
44564;SDS011;30275;51.822;-0.326;2022-09-29T01:15:53;1.67;;;0.80;;
44564;SDS011;30275;51.822;-0.326;2022-09-29T01:18:18;1.10;;;1.00;;
44564;SDS011;30275;51.822;-0.326;2022-09-29T01:20:50;1.58;;;1.13;;
44564;SDS011;30275;51.822;-0.326;2022-09-29T01:23:27;2.63;;;1.15;;
44564;SDS011;30275;51.822;-0.326;2022-09-29T01:31:33;2.25;;;1.48;;
44564;SDS011;30275;51.822;-0.326;2022-09-29T01:34:09;3.42;;;1.17;;
44564;SDS011;30275;51.822;-0.326;2022-09-29T01:39:25;1.88;;;1.02;;
44564;SDS011;30275;51.822;-0.326;2022-09-29T01:44:48;1.77;;;1.10;;
44564;SDS011;30275;51.822;-0.326;2022-09-29T01:49:59;4.75;;;1.63;;
44564;SDS011;30275;51.822;-0.326;2022-09-29T01:52:30;1.23;;;0.93;;
44564;SDS011;30275;51.822;-0.326;2022-09-29T01:55:02;2.05;;;1.20;;
44564;SDS011;30275;51.822;-0.326;2022-09-29T02:00:28;4.57;;;1.13;;
44564;SDS011;30275;51.822;-0.326;2022-09-29T02:05:40;2.33;;;0.88;;
44564;SDS011;30275;51.822;-0.326;2022-09-29T02:08:13;2.28;;;1.25;;
44564;SDS011;30275;51.822;-0.326;2022-09-29T02:11:07;2.30;;;1.42;;
44564;SDS011;30275;51.822;-0.326;2022-09-29T02:13:37;2.60;;;1.23;;
44564;SDS011;30275;51.822;-0.326;2022-09-29T02:16:08;2.67;;;1.25;;
44564;SDS011;30275;51.822;-0.326;2022-09-29T02:18:53;2.33;;;1.10;;
44564;SDS011;30275;51.822;-0.326;2022-09-29T02:21:23;1.33;;;0.90;;
44564;SDS011;30275;51.822;-0.326;2022-09-29T02:23:49;2.40;;;0.88;;
44564;SDS011;30275;51.822;-0.326;2022-09-29T02:26:16;2.90;;;1.10;;
44564;SDS011;30275;51.822;-0.326;2022-09-29T02:28:43;1.38;;;1.08;;
44564;SDS011;30275;51.822;-0.326;2022-09-29T02:31:09;2.50;;;1.00;;
44564;SDS011;30275;51.822;-0.326;2022-09-29T02:33:35;4.45;;;0.95;;
44564;SDS011;30275;51.822;-0.326;2022-09-29T02:38:34;1.50;;;1.05;;
44564;SDS011;30275;51.822;-0.326;2022-09-29T02:41:32;3.67;;;1.60;;
44564;SDS011;30275;51.822;-0.326;2022-09-29T02:44:16;4.20;;;1.70;;
44564;SDS011;30275;51.822;-0.326;2022-09-29T02:52:25;2.05;;;1.20;;
44564;SDS011;30275;51.822;-0.326;2022-09-29T02:55:17;3.03;;;1.27;;
44564;SDS011;30275;51.822;-0.326;2022-09-29T02:57:54;1.83;;;1.50;;
44564;SDS011;30275;51.822;-0.326;2022-09-29T03:00:27;2.28;;;1.10;;
44564;SDS011;30275;51.822;-0.326;2022-09-29T03:02:54;5.13;;;2.13;;
44564;SDS011;30275;51.822;-0.326;2022-09-29T03:05:20;3.45;;;1.00;;
44564;SDS011;30275;51.822;-0.326;2022-09-29T03:07:46;2.85;;;1.10;;
44564;SDS011;30275;51.822;-0.326;2022-09-29T03:10:12;2.65;;;1.10;;
44564;SDS011;30275;51.822;-0.326;2022-09-29T03:12:40;2.25;;;1.20;;
44564;SDS011;30275;51.822;-0.326;2022-09-29T03:15:06;2.17;;;1.30;;
44564;SDS011;30275;51.822;-0.326;2022-09-29T03:17:33;2.20;;;1.20;;
44564;SDS011;30275;51.822;-0.326;2022-09-29T03:19:58;2.85;;;1.05;;
44564;SDS011;30275;51.822;-0.326;2022-09-29T03:22:24;3.55;;;1.40;;
44564;SDS011;30275;51.822;-0.326;2022-09-29T03:24:50;2.00;;;0.98;;
44564;SDS011;30275;51.822;-0.326;2022-09-29T03:27:16;2.95;;;1.52;;
44564;SDS011;30275;51.822;-0.326;2022-09-29T03:29:41;1.63;;;1.00;;
44564;SDS011;30275;51.822;-0.326;2022-09-29T03:32:07;3.40;;;1.13;;
44564;SDS011;30275;51.822;-0.326;2022-09-29T03:34:33;1.48;;;1.10;;
44564;SDS011;30275;51.822;-0.326;2022-09-29T03:36:59;2.35;;;1.38;;
44564;SDS011;30275;51.822;-0.326;2022-09-29T03:39:25;1.77;;;0.98;;
44564;SDS011;30275;51.822;-0.326;2022-09-29T03:41:52;1.80;;;1.20;;
44564;SDS011;30275;51.822;-0.326;2022-09-29T03:44:17;3.38;;;1.02;;
44564;SDS011;30275;51.822;-0.326;2022-09-29T03:46:43;3.65;;;0.95;;
44564;SDS011;30275;51.822;-0.326;2022-09-29T03:49:10;3.92;;;1.33;;
44564;SDS011;30275;51.822;-0.326;2022-09-29T03:51:36;1.13;;;0.98;;
44564;SDS011;30275;51.822;-0.326;2022-09-29T03:54:02;0.98;;;0.98;;
44564;SDS011;30275;51.822;-0.326;2022-09-29T03:56:28;1.80;;;1.20;;
44564;SDS011;30275;51.822;-0.326;2022-09-29T03:58:53;2.83;;;1.13;;
44564;SDS011;30275;51.822;-0.326;2022-09-29T04:01:19;3.83;;;1.27;;
44564;SDS011;30275;51.822;-0.326;2022-09-29T04:03:45;3.55;;;1.25;;
44564;SDS011;30275;51.822;-0.326;2022-09-29T04:06:11;3.65;;;1.38;;
44564;SDS011;30275;51.822;-0.326;2022-09-29T04:08:37;2.03;;;0.95;;
44564;SDS011;30275;51.822;-0.326;2022-09-29T04:11:03;2.83;;;1.67;;
44564;SDS011;30275;51.822;-0.326;2022-09-29T04:13:29;2.05;;;1.00;;
44564;SDS011;30275;51.822;-0.326;2022-09-29T04:16:01;4.05;;;1.33;;
44564;SDS011;30275;51.822;-0.326;2022-09-29T04:18:28;2.22;;;1.02;;
44564;SDS011;30275;51.822;-0.326;2022-09-29T04:20:55;2.78;;;1.35;;
44564;SDS011;30275;51.822;-0.326;2022-09-29T04:23:27;5.00;;;1.30;;
44564;SDS011;30275;51.822;-0.326;2022-09-29T04:25:57;1.85;;;1.00;;
44564;SDS011;30275;51.822;-0.326;2022-09-29T04:28:25;2.42;;;1.10;;
44564;SDS011;30275;51.822;-0.326;2022-09-29T04:30:50;5.05;;;1.30;;
44564;SDS011;30275;51.822;-0.326;2022-09-29T04:33:16;2.72;;;1.92;;
44564;SDS011;30275;51.822;-0.326;2022-09-29T04:35:42;6.40;;;1.10;;
44564;SDS011;30275;51.822;-0.326;2022-09-29T04:38:07;2.60;;;1.25;;
44564;SDS011;30275;51.822;-0.326;2022-09-29T04:40:34;3.83;;;1.65;;
44564;SDS011;30275;51.822;-0.326;2022-09-29T04:43:00;4.22;;;1.30;;
44564;SDS011;30275;51.822;-0.326;2022-09-29T04:45:26;3.58;;;1.40;;
44564;SDS011;30275;51.822;-0.326;2022-09-29T04:47:51;8.45;;;1.67;;
44564;SDS011;30275;51.822;-0.326;2022-09-29T04:50:17;4.43;;;1.65;;
44564;SDS011;30275;51.822;-0.326;2022-09-29T04:52:43;5.32;;;1.80;;
44564;SDS011;30275;51.822;-0.326;2022-09-29T04:55:09;3.85;;;1.00;;
44564;SDS011;30275;51.822;-0.326;2022-09-29T04:57:36;2.85;;;1.35;;
44564;SDS011;30275;51.822;-0.326;2022-09-29T05:00:06;4.38;;;1.60;;
44564;SDS011;30275;51.822;-0.326;2022-09-29T05:02:33;3.45;;;1.17;;
44564;SDS011;30275;51.822;-0.326;2022-09-29T05:04:59;2.53;;;1.30;;
44564;SDS011;30275;51.822;-0.326;2022-09-29T05:07:25;3.25;;;1.55;;
44564;SDS011;30275;51.822;-0.326;2022-09-29T05:09:50;2.78;;;0.98;;
44564;SDS011;30275;51.822;-0.326;2022-09-29T05:12:16;3.90;;;1.55;;
44564;SDS011;30275;51.822;-0.326;2022-09-29T05:14:41;2.42;;;1.23;;
44564;SDS011;30275;51.822;-0.326;2022-09-29T05:17:08;5.30;;;1.30;;
44564;SDS011;30275;51.822;-0.326;2022-09-29T05:19:34;5.15;;;2.42;;
44564;SDS011;30275;51.822;-0.326;2022-09-29T05:22:00;4.32;;;1.13;;
44564;SDS011;30275;51.822;-0.326;2022-09-29T05:24:26;3.70;;;1.33;;
44564;SDS011;30275;51.822;-0.326;2022-09-29T05:26:52;2.38;;;1.10;;
44564;SDS011;30275;51.822;-0.326;2022-09-29T05:29:17;7.97;;;2.08;;
44564;SDS011;30275;51.822;-0.326;2022-09-29T05:31:43;3.28;;;1.20;;
44564;SDS011;30275;51.822;-0.326;2022-09-29T05:34:09;2.60;;;1.05;;
44564;SDS011;30275;51.822;-0.326;2022-09-29T05:36:35;3.03;;;1.08;;
44564;SDS011;30275;51.822;-0.326;2022-09-29T05:39:00;5.18;;;1.85;;
44564;SDS011;30275;51.822;-0.326;2022-09-29T05:41:26;8.48;;;1.60;;
44564;SDS011;30275;51.822;-0.326;2022-09-29T05:43:52;11.88;;;1.40;;
44564;SDS011;30275;51.822;-0.326;2022-09-29T05:46:20;6.68;;;1.88;;
44564;SDS011;30275;51.822;-0.326;2022-09-29T05:48:46;6.07;;;1.88;;
44564;SDS011;30275;51.822;-0.326;2022-09-29T05:51:14;7.22;;;1.42;;
44564;SDS011;30275;51.822;-0.326;2022-09-29T05:53:41;5.95;;;1.95;;
44564;SDS011;30275;51.822;-0.326;2022-09-29T05:56:08;10.23;;;2.10;;
44564;SDS011;30275;51.822;-0.326;2022-09-29T05:58:36;13.48;;;1.98;;
44564;SDS011;30275;51.822;-0.326;2022-09-29T06:01:36;7.10;;;1.92;;
44564;SDS011;30275;51.822;-0.326;2022-09-29T06:03:56;9.13;;;2.08;;
44564;SDS011;30275;51.822;-0.326;2022-09-29T06:06:25;11.88;;;2.08;;
44564;SDS011;30275;51.822;-0.326;2022-09-29T06:08:52;7.75;;;2.65;;
44564;SDS011;30275;51.822;-0.326;2022-09-29T06:11:22;13.07;;;2.20;;
44564;SDS011;30275;51.822;-0.326;2022-09-29T06:13:51;8.88;;;1.80;;
44564;SDS011;30275;51.822;-0.326;2022-09-29T06:16:18;6.18;;;1.98;;
44564;SDS011;30275;51.822;-0.326;2022-09-29T06:18:46;5.97;;;2.25;;
44564;SDS011;30275;51.822;-0.326;2022-09-29T06:21:13;5.32;;;1.77;;
44564;SDS011;30275;51.822;-0.326;2022-09-29T06:23:43;3.63;;;1.30;;
44564;SDS011;30275;51.822;-0.326;2022-09-29T06:26:10;3.20;;;1.35;;
44564;SDS011;30275;51.822;-0.326;2022-09-29T06:28:38;5.93;;;2.33;;
44564;SDS011;30275;51.822;-0.326;2022-09-29T06:31:14;3.13;;;1.27;;
44564;SDS011;30275;51.822;-0.326;2022-09-29T06:33:42;5.03;;;2.03;;
44564;SDS011;30275;51.822;-0.326;2022-09-29T06:38:55;5.30;;;1.92;;
44564;SDS011;30275;51.822;-0.326;2022-09-29T06:41:21;5.65;;;1.25;;
44564;SDS011;30275;51.822;-0.326;2022-09-29T06:43:47;4.95;;;1.33;;
44564;SDS011;30275;51.822;-0.326;2022-09-29T06:46:12;3.90;;;1.30;;
44564;SDS011;30275;51.822;-0.326;2022-09-29T06:48:38;3.45;;;1.40;;
44564;SDS011;30275;51.822;-0.326;2022-09-29T06:51:07;4.68;;;1.60;;
44564;SDS011;30275;51.822;-0.326;2022-09-29T06:53:33;8.43;;;1.75;;
44564;SDS011;30275;51.822;-0.326;2022-09-29T06:56:00;3.88;;;1.80;;
44564;SDS011;30275;51.822;-0.326;2022-09-29T06:58:27;4.63;;;1.45;;
44564;SDS011;30275;51.822;-0.326;2022-09-29T07:00:53;2.88;;;1.10;;
44564;SDS011;30275;51.822;-0.326;2022-09-29T07:03:19;5.22;;;1.60;;
44564;SDS011;30275;51.822;-0.326;2022-09-29T07:05:45;4.43;;;1.23;;
44564;SDS011;30275;51.822;-0.326;2022-09-29T07:08:11;7.55;;;2.15;;
44564;SDS011;30275;51.822;-0.326;2022-09-29T07:10:37;1.85;;;1.33;;
44564;SDS011;30275;51.822;-0.326;2022-09-29T07:13:02;3.83;;;1.40;;
44564;SDS011;30275;51.822;-0.326;2022-09-29T07:15:29;2.75;;;1.45;;
44564;SDS011;30275;51.822;-0.326;2022-09-29T07:17:58;2.70;;;1.80;;
44564;SDS011;30275;51.822;-0.326;2022-09-29T07:20:25;1.77;;;1.38;;
44564;SDS011;30275;51.822;-0.326;2022-09-29T07:22:51;2.25;;;1.00;;
44564;SDS011;30275;51.822;-0.326;2022-09-29T07:25:17;5.55;;;1.30;;
44564;SDS011;30275;51.822;-0.326;2022-09-29T07:27:43;1.52;;;1.13;;
44564;SDS011;30275;51.822;-0.326;2022-09-29T07:30:10;1.75;;;1.15;;
44564;SDS011;30275;51.822;-0.326;2022-09-29T07:32:36;3.90;;;1.15;;
44564;SDS011;30275;51.822;-0.326;2022-09-29T07:35:01;3.80;;;0.95;;
44564;SDS011;30275;51.822;-0.326;2022-09-29T07:37:27;5.55;;;1.33;;
44564;SDS011;30275;51.822;-0.326;2022-09-29T07:39:53;3.10;;;1.20;;
44564;SDS011;30275;51.822;-0.326;2022-09-29T07:42:19;3.38;;;1.00;;
44564;SDS011;30275;51.822;-0.326;2022-09-29T07:44:45;3.17;;;1.63;;
44564;SDS011;30275;51.822;-0.326;2022-09-29T07:47:11;3.05;;;1.30;;
44564;SDS011;30275;51.822;-0.326;2022-09-29T07:49:38;4.43;;;1.27;;
44564;SDS011;30275;51.822;-0.326;2022-09-29T07:52:04;3.30;;;1.25;;
44564;SDS011;30275;51.822;-0.326;2022-09-29T07:54:30;3.60;;;1.20;;
44564;SDS011;30275;51.822;-0.326;2022-09-29T07:56:56;2.67;;;1.40;;
44564;SDS011;30275;51.822;-0.326;2022-09-29T07:59:24;4.95;;;1.20;;
44564;SDS011;30275;51.822;-0.326;2022-09-29T08:01:51;2.05;;;1.17;;
44564;SDS011;30275;51.822;-0.326;2022-09-29T08:04:17;2.58;;;1.38;;
44564;SDS011;30275;51.822;-0.326;2022-09-29T08:06:42;3.47;;;1.10;;
44564;SDS011;30275;51.822;-0.326;2022-09-29T08:09:08;3.95;;;1.45;;
44564;SDS011;30275;51.822;-0.326;2022-09-29T08:11:36;3.80;;;1.23;;
44564;SDS011;30275;51.822;-0.326;2022-09-29T08:14:02;3.63;;;1.33;;
44564;SDS011;30275;51.822;-0.326;2022-09-29T08:16:28;1.38;;;1.02;;
44564;SDS011;30275;51.822;-0.326;2022-09-29T08:18:55;2.28;;;1.10;;
44564;SDS011;30275;51.822;-0.326;2022-09-29T08:21:21;2.75;;;1.20;;
44564;SDS011;30275;51.822;-0.326;2022-09-29T08:23:47;2.25;;;0.98;;
44564;SDS011;30275;51.822;-0.326;2022-09-29T08:26:16;1.63;;;0.98;;
44564;SDS011;30275;51.822;-0.326;2022-09-29T08:28:44;1.65;;;1.00;;
44564;SDS011;30275;51.822;-0.326;2022-09-29T08:31:13;3.05;;;1.20;;
44564;SDS011;30275;51.822;-0.326;2022-09-29T08:33:44;2.40;;;1.50;;
44564;SDS011;30275;51.822;-0.326;2022-09-29T08:36:10;1.92;;;1.17;;
44564;SDS011;30275;51.822;-0.326;2022-09-29T08:38:41;2.40;;;1.25;;
44564;SDS011;30275;51.822;-0.326;2022-09-29T08:43:48;1.75;;;0.90;;
44564;SDS011;30275;51.822;-0.326;2022-09-29T08:48:49;2.42;;;1.48;;
44564;SDS011;30275;51.822;-0.326;2022-09-29T08:51:33;2.15;;;1.25;;
44564;SDS011;30275;51.822;-0.326;2022-09-29T08:54:09;1.58;;;1.20;;
44564;SDS011;30275;51.822;-0.326;2022-09-29T08:56:44;2.87;;;2.23;;
44564;SDS011;30275;51.822;-0.326;2022-09-29T08:59:10;0.98;;;0.80;;
44564;SDS011;30275;51.822;-0.326;2022-09-29T09:01:47;4.18;;;1.38;;
44564;SDS011;30275;51.822;-0.326;2022-09-29T09:06:49;1.52;;;0.82;;
44564;SDS011;30275;51.822;-0.326;2022-09-29T09:09:35;1.60;;;1.00;;
44564;SDS011;30275;51.822;-0.326;2022-09-29T09:22:59;2.00;;;1.33;;
44564;SDS011;30275;51.822;-0.326;2022-09-29T09:25:33;2.55;;;1.02;;
44564;SDS011;30275;51.822;-0.326;2022-09-29T09:28:18;1.85;;;1.20;;
44564;SDS011;30275;51.822;-0.326;2022-09-29T09:33:29;2.40;;;1.20;;
44564;SDS011;30275;51.822;-0.326;2022-09-29T09:38:40;1.08;;;0.98;;
44564;SDS011;30275;51.822;-0.326;2022-09-29T09:41:15;1.73;;;1.10;;
44564;SDS011;30275;51.822;-0.326;2022-09-29T09:49:13;2.97;;;1.15;;
44564;SDS011;30275;51.822;-0.326;2022-09-29T09:51:53;2.92;;;1.20;;
44564;SDS011;30275;51.822;-0.326;2022-09-29T09:54:37;2.17;;;1.10;;
44564;SDS011;30275;51.822;-0.326;2022-09-29T09:57:43;2.10;;;1.20;;
44564;SDS011;30275;51.822;-0.326;2022-09-29T10:02:50;1.42;;;1.10;;
44564;SDS011;30275;51.822;-0.326;2022-09-29T10:05:21;4.03;;;1.48;;
44564;SDS011;30275;51.822;-0.326;2022-09-29T10:07:51;2.25;;;1.20;;
44564;SDS011;30275;51.822;-0.326;2022-09-29T10:10:24;1.38;;;0.98;;
44564;SDS011;30275;51.822;-0.326;2022-09-29T10:12:55;1.63;;;1.30;;
44564;SDS011;30275;51.822;-0.326;2022-09-29T10:16:28;2.15;;;1.00;;
44564;SDS011;30275;51.822;-0.326;2022-09-29T10:18:35;3.72;;;1.10;;
44564;SDS011;30275;51.822;-0.326;2022-09-29T10:21:27;3.05;;;1.20;;
44564;SDS011;30275;51.822;-0.326;2022-09-29T10:24:00;1.40;;;1.20;;
44564;SDS011;30275;51.822;-0.326;2022-09-29T10:26:31;1.08;;;0.82;;
44564;SDS011;30275;51.822;-0.326;2022-09-29T10:29:03;2.40;;;1.20;;
44564;SDS011;30275;51.822;-0.326;2022-09-29T10:34:38;1.17;;;0.93;;
44564;SDS011;30275;51.822;-0.326;2022-09-29T10:37:28;1.40;;;1.00;;
44564;SDS011;30275;51.822;-0.326;2022-09-29T10:42:37;1.45;;;1.27;;
44564;SDS011;30275;51.822;-0.326;2022-09-29T10:47:39;1.20;;;1.10;;
44564;SDS011;30275;51.822;-0.326;2022-09-29T10:50:23;1.70;;;1.27;;
44564;SDS011;30275;51.822;-0.326;2022-09-29T10:52:52;2.83;;;1.73;;
44564;SDS011;30275;51.822;-0.326;2022-09-29T10:55:33;2.40;;;1.20;;
44564;SDS011;30275;51.822;-0.326;2022-09-29T10:58:34;1.20;;;1.10;;
44564;SDS011;30275;51.822;-0.326;2022-09-29T11:01:01;1.38;;;1.20;;
44564;SDS011;30275;51.822;-0.326;2022-09-29T11:03:44;1.55;;;1.20;;
44564;SDS011;30275;51.822;-0.326;2022-09-29T11:06:11;2.05;;;0.98;;
44564;SDS011;30275;51.822;-0.326;2022-09-29T11:08:53;3.35;;;1.58;;
44564;SDS011;30275;51.822;-0.326;2022-09-29T11:11:22;2.20;;;1.30;;
44564;SDS011;30275;51.822;-0.326;2022-09-29T11:13:50;2.28;;;1.20;;
44564;SDS011;30275;51.822;-0.326;2022-09-29T11:16:18;1.02;;;0.93;;
44564;SDS011;30275;51.822;-0.326;2022-09-29T11:19:04;1.27;;;1.00;;
44564;SDS011;30275;51.822;-0.326;2022-09-29T11:27:45;1.45;;;1.15;;
44564;SDS011;30275;51.822;-0.326;2022-09-29T11:33:34;1.42;;;1.33;;
44564;SDS011;30275;51.822;-0.326;2022-09-29T11:39:01;1.80;;;1.40;;
44564;SDS011;30275;51.822;-0.326;2022-09-29T11:50:02;2.08;;;1.30;;
44564;SDS011;30275;51.822;-0.326;2022-09-29T12:06:51;1.77;;;1.30;;
44564;SDS011;30275;51.822;-0.326;2022-09-29T12:09:22;3.65;;;1.30;;
44564;SDS011;30275;51.822;-0.326;2022-09-29T12:17:17;1.55;;;1.10;;
44564;SDS011;30275;51.822;-0.326;2022-09-29T12:19:44;2.35;;;1.30;;
44564;SDS011;30275;51.822;-0.326;2022-09-29T12:22:22;1.55;;;1.10;;
44564;SDS011;30275;51.822;-0.326;2022-09-29T12:24:49;1.27;;;1.17;;
44564;SDS011;30275;51.822;-0.326;2022-09-29T12:29:58;1.23;;;1.13;;
44564;SDS011;30275;51.822;-0.326;2022-09-29T12:35:47;1.95;;;1.00;;
44564;SDS011;30275;51.822;-0.326;2022-09-29T12:41:20;1.10;;;1.00;;
44564;SDS011;30275;51.822;-0.326;2022-09-29T12:46:47;1.58;;;1.15;;
44564;SDS011;30275;51.822;-0.326;2022-09-29T12:49:35;2.05;;;1.20;;
44564;SDS011;30275;51.822;-0.326;2022-09-29T12:52:11;1.40;;;1.02;;
44564;SDS011;30275;51.822;-0.326;2022-09-29T12:54:46;1.27;;;1.17;;
44564;SDS011;30275;51.822;-0.326;2022-09-29T12:57:19;1.02;;;1.00;;
44564;SDS011;30275;51.822;-0.326;2022-09-29T13:00:00;1.15;;;1.08;;
44564;SDS011;30275;51.822;-0.326;2022-09-29T13:21:54;1.20;;;1.10;;
44564;SDS011;30275;51.822;-0.326;2022-09-29T13:27:19;1.55;;;1.15;;
44564;SDS011;30275;51.822;-0.326;2022-09-29T13:32:42;2.53;;;1.23;;
44564;SDS011;30275;51.822;-0.326;2022-09-29T13:35:13;0.90;;;0.90;;
44564;SDS011;30275;51.822;-0.326;2022-09-29T13:37:52;1.42;;;1.20;;
44564;SDS011;30275;51.822;-0.326;2022-09-29T13:40:22;1.25;;;1.15;;
44564;SDS011;30275;51.822;-0.326;2022-09-29T13:42:50;1.25;;;1.13;;
44564;SDS011;30275;51.822;-0.326;2022-09-29T13:58:20;1.27;;;1.13;;
44564;SDS011;30275;51.822;-0.326;2022-09-29T14:00:47;1.45;;;0.98;;
44564;SDS011;30275;51.822;-0.326;2022-09-29T14:03:32;1.00;;;0.80;;
44564;SDS011;30275;51.822;-0.326;2022-09-29T14:06:03;2.55;;;1.17;;
44564;SDS011;30275;51.822;-0.326;2022-09-29T14:08:33;1.00;;;0.90;;
44564;SDS011;30275;51.822;-0.326;2022-09-29T14:11:14;1.00;;;0.95;;
44564;SDS011;30275;51.822;-0.326;2022-09-29T14:14:33;1.15;;;1.05;;
44564;SDS011;30275;51.822;-0.326;2022-09-29T14:19:38;1.50;;;1.40;;
44564;SDS011;30275;51.822;-0.326;2022-09-29T14:24:53;1.20;;;0.80;;
44564;SDS011;30275;51.822;-0.326;2022-09-29T14:30:15;0.70;;;0.70;;
44564;SDS011;30275;51.822;-0.326;2022-09-29T14:35:26;2.60;;;1.10;;
44564;SDS011;30275;51.822;-0.326;2022-09-29T14:38:18;2.05;;;1.23;;
44564;SDS011;30275;51.822;-0.326;2022-09-29T14:41:02;0.88;;;0.88;;
44564;SDS011;30275;51.822;-0.326;2022-09-29T14:43:57;2.17;;;1.15;;
44564;SDS011;30275;51.822;-0.326;2022-09-29T14:52:51;1.52;;;1.20;;
44564;SDS011;30275;51.822;-0.326;2022-09-29T14:55:22;1.02;;;0.93;;
44564;SDS011;30275;51.822;-0.326;2022-09-29T14:58:16;1.15;;;0.95;;
44564;SDS011;30275;51.822;-0.326;2022-09-29T15:03:53;1.17;;;1.00;;
44564;SDS011;30275;51.822;-0.326;2022-09-29T15:14:01;2.13;;;1.10;;
44564;SDS011;30275;51.822;-0.326;2022-09-29T15:25:48;2.90;;;1.10;;
44564;SDS011;30275;51.822;-0.326;2022-09-29T15:28:34;4.72;;;1.45;;
44564;SDS011;30275;51.822;-0.326;2022-09-29T15:31:07;1.80;;;0.70;;
44564;SDS011;30275;51.822;-0.326;2022-09-29T15:33:37;1.25;;;0.95;;
44564;SDS011;30275;51.822;-0.326;2022-09-29T15:38:45;2.80;;;1.05;;
44564;SDS011;30275;51.822;-0.326;2022-09-29T15:41:16;1.58;;;1.00;;
44564;SDS011;30275;51.822;-0.326;2022-09-29T15:43:57;3.78;;;1.33;;
44564;SDS011;30275;51.822;-0.326;2022-09-29T15:46:45;1.48;;;0.90;;
44564;SDS011;30275;51.822;-0.326;2022-09-29T15:49:19;2.13;;;1.05;;
44564;SDS011;30275;51.822;-0.326;2022-09-29T15:54:27;3.72;;;1.20;;
44564;SDS011;30275;51.822;-0.326;2022-09-29T15:56:59;1.58;;;1.00;;
44564;SDS011;30275;51.822;-0.326;2022-09-29T15:59:48;0.98;;;0.98;;
44564;SDS011;30275;51.822;-0.326;2022-09-29T16:05:01;2.65;;;1.00;;
44564;SDS011;30275;51.822;-0.326;2022-09-29T16:07:37;1.98;;;0.90;;
44564;SDS011;30275;51.822;-0.326;2022-09-29T16:10:19;1.73;;;1.10;;
44564;SDS011;30275;51.822;-0.326;2022-09-29T16:12:48;4.15;;;1.20;;
44564;SDS011;30275;51.822;-0.326;2022-09-29T16:15:34;0.82;;;0.80;;
44564;SDS011;30275;51.822;-0.326;2022-09-29T16:18:12;1.05;;;0.80;;
44564;SDS011;30275;51.822;-0.326;2022-09-29T16:20:48;0.90;;;0.73;;
44564;SDS011;30275;51.822;-0.326;2022-09-29T16:28:36;1.20;;;0.90;;
44564;SDS011;30275;51.822;-0.326;2022-09-29T16:31:17;1.45;;;1.02;;
44564;SDS011;30275;51.822;-0.326;2022-09-29T16:33:51;1.73;;;0.90;;
44564;SDS011;30275;51.822;-0.326;2022-09-29T16:36:23;1.60;;;1.00;;
44564;SDS011;30275;51.822;-0.326;2022-09-29T16:38:58;3.10;;;0.70;;
44564;SDS011;30275;51.822;-0.326;2022-09-29T16:52:31;2.33;;;1.15;;
44564;SDS011;30275;51.822;-0.326;2022-09-29T16:58:01;1.77;;;0.75;;
44564;SDS011;30275;51.822;-0.326;2022-09-29T17:00:33;1.13;;;0.85;;
44564;SDS011;30275;51.822;-0.326;2022-09-29T17:03:00;1.38;;;0.90;;
44564;SDS011;30275;51.822;-0.326;2022-09-29T17:05:29;1.98;;;1.20;;
44564;SDS011;30275;51.822;-0.326;2022-09-29T17:08:03;2.17;;;1.20;;
44564;SDS011;30275;51.822;-0.326;2022-09-29T17:10:29;1.42;;;0.73;;
44564;SDS011;30275;51.822;-0.326;2022-09-29T17:12:55;0.85;;;0.85;;
44564;SDS011;30275;51.822;-0.326;2022-09-29T17:15:22;1.17;;;0.80;;
44564;SDS011;30275;51.822;-0.326;2022-09-29T17:17:48;1.85;;;0.75;;
44564;SDS011;30275;51.822;-0.326;2022-09-29T17:20:16;1.10;;;0.73;;
44564;SDS011;30275;51.822;-0.326;2022-09-29T17:22:44;3.33;;;0.93;;
44564;SDS011;30275;51.822;-0.326;2022-09-29T17:25:10;0.85;;;0.63;;
44564;SDS011;30275;51.822;-0.326;2022-09-29T17:27:37;1.05;;;0.95;;
44564;SDS011;30275;51.822;-0.326;2022-09-29T17:30:22;4.00;;;0.90;;
44564;SDS011;30275;51.822;-0.326;2022-09-29T17:32:51;1.70;;;0.80;;
44564;SDS011;30275;51.822;-0.326;2022-09-29T17:35:18;1.50;;;0.80;;
44564;SDS011;30275;51.822;-0.326;2022-09-29T17:37:46;2.33;;;0.80;;
44564;SDS011;30275;51.822;-0.326;2022-09-29T17:42:42;0.68;;;0.63;;
44564;SDS011;30275;51.822;-0.326;2022-09-29T17:45:09;1.98;;;0.80;;
44564;SDS011;30275;51.822;-0.326;2022-09-29T17:47:34;3.97;;;0.90;;
44564;SDS011;30275;51.822;-0.326;2022-09-29T17:50:08;3.95;;;0.80;;
44564;SDS011;30275;51.822;-0.326;2022-09-29T17:52:52;1.42;;;0.70;;
44564;SDS011;30275;51.822;-0.326;2022-09-29T17:55:18;1.00;;;0.90;;
44564;SDS011;30275;51.822;-0.326;2022-09-29T17:57:47;1.75;;;0.90;;
44564;SDS011;30275;51.822;-0.326;2022-09-29T18:00:15;1.65;;;0.82;;
44564;SDS011;30275;51.822;-0.326;2022-09-29T18:02:45;2.35;;;0.70;;
44564;SDS011;30275;51.822;-0.326;2022-09-29T18:05:11;1.00;;;0.70;;
44564;SDS011;30275;51.822;-0.326;2022-09-29T18:07:36;1.90;;;0.60;;
44564;SDS011;30275;51.822;-0.326;2022-09-29T18:10:05;0.63;;;0.57;;
44564;SDS011;30275;51.822;-0.326;2022-09-29T18:12:49;1.77;;;0.85;;
44564;SDS011;30275;51.822;-0.326;2022-09-29T18:15:15;3.33;;;1.10;;
44564;SDS011;30275;51.822;-0.326;2022-09-29T18:17:41;3.45;;;0.75;;
44564;SDS011;30275;51.822;-0.326;2022-09-29T18:20:18;3.25;;;1.02;;
44564;SDS011;30275;51.822;-0.326;2022-09-29T18:22:46;1.35;;;0.88;;
44564;SDS011;30275;51.822;-0.326;2022-09-29T18:25:15;1.38;;;0.90;;
44564;SDS011;30275;51.822;-0.326;2022-09-29T18:27:43;4.57;;;0.95;;
44564;SDS011;30275;51.822;-0.326;2022-09-29T18:30:18;4.65;;;1.20;;
44564;SDS011;30275;51.822;-0.326;2022-09-29T18:32:47;5.47;;;1.05;;
44564;SDS011;30275;51.822;-0.326;2022-09-29T18:35:30;5.25;;;1.10;;
44564;SDS011;30275;51.822;-0.326;2022-09-29T18:37:58;4.13;;;2.65;;
44564;SDS011;30275;51.822;-0.326;2022-09-29T18:40:24;3.40;;;1.60;;
44564;SDS011;30275;51.822;-0.326;2022-09-29T18:42:51;5.63;;;2.08;;
44564;SDS011;30275;51.822;-0.326;2022-09-29T18:45:20;7.22;;;2.40;;
44564;SDS011;30275;51.822;-0.326;2022-09-29T18:47:49;12.02;;;4.28;;